Time;durP1;ratioP1;P1;durP2;ratioP2;P2;SDS_P1;SDS_P2;PMS_P1;PMS_P2;Temp;Humidity;BMP_temperature;BMP_pressure;BME280_temperature;BME280_humidity;BME280_pressure;Samples;Min_cycle;Max_cycle;Signal;HPM_P1;HPM_P2
2022/01/17 00:00:34;;;;;;;112.57;45.33;;;;;;;-2.87;100.00;99702.09;4997156;28;20163;-83
2022/01/17 00:03:00;;;;;;;111.90;44.00;;;;;;;-1.34;100.00;99945.50;4995458;28;20187;-84
2022/01/17 00:05:27;;;;;;;112.45;43.40;;;;;;;-0.84;100.00;100017.50;4995287;28;20222;-82
2022/01/17 00:07:52;;;;;;;115.32;45.97;;;;;;;-2.43;100.00;99733.72;4994778;28;20194;-84
2022/01/17 00:10:18;;;;;;;113.40;46.03;;;;;;;-2.08;100.00;99833.88;4996346;28;20163;-84
2022/01/17 00:12:45;;;;;;;120.57;46.33;;;;;;;-0.88;100.00;100036.19;4995227;28;20714;-83
2022/01/17 00:15:20;;;;;;;114.13;44.63;;;;;;;-2.81;100.00;99689.44;5007497;28;20214;-83
2022/01/17 00:17:50;;;;;;;116.53;46.67;;;;;;;-1.62;100.00;99901.34;5013777;28;20176;-84
2022/01/17 00:20:24;;;;;;;118.45;47.03;;;;;;;-0.96;100.00;100022.16;5014879;28;20151;-84
2022/01/17 00:22:50;;;;;;;127.55;46.20;;;;;;;-3.77;100.00;99535.38;5015300;28;20331;-83
2022/01/17 00:25:15;;;;;;;118.43;47.53;;;;;;;-3.79;100.00;99556.63;5014441;28;20641;-83
2022/01/17 00:27:40;;;;;;;126.40;50.50;;;;;;;-1.46;100.00;99952.66;5014538;28;20240;-83
2022/01/17 00:30:09;;;;;;;122.47;51.20;;;;;;;-1.07;100.00;100000.34;4997057;28;20171;-84
2022/01/17 00:32:34;;;;;;;147.88;55.30;;;;;;;-4.19;100.00;99455.31;5013947;28;20225;-83
2022/01/17 00:35:00;;;;;;;151.30;57.47;;;;;;;-3.68;100.00;99537.16;5014365;28;20195;-85
2022/01/17 00:37:25;;;;;;;134.97;53.27;;;;;;;-1.04;100.00;99980.78;5013886;28;20179;-84
2022/01/17 00:39:51;;;;;;;130.00;51.93;;;;;;;-1.65;100.00;99888.63;5013012;28;20556;-83
2022/01/17 00:42:16;;;;;;;125.60;50.07;;;;;;;-3.45;100.00;99593.00;5014020;28;20173;-85
2022/01/17 00:44:41;;;;;;;130.13;50.27;;;;;;;-1.68;100.00;99894.16;5013815;28;20548;-84
2022/01/17 00:47:07;;;;;;;124.07;47.77;;;;;;;-2.23;100.00;99806.00;5013153;28;20155;-84
2022/01/17 00:49:33;;;;;;;116.23;46.47;;;;;;;-2.00;100.00;99855.38;4995780;28;20179;-83
2022/01/17 00:51:58;;;;;;;105.87;43.80;;;;;;;-1.21;100.00;100010.56;5013161;28;20214;-84
2022/01/17 00:54:24;;;;;;;108.10;43.53;;;;;;;-3.62;100.00;99623.47;5013288;28;20242;-84
2022/01/17 00:56:49;;;;;;;119.07;45.47;;;;;;;-3.57;100.00;99634.69;5013049;28;20670;-82
2022/01/17 00:59:15;;;;;;;110.00;44.77;;;;;;;-3.49;100.00;99671.03;5013264;28;20162;-84
2022/01/17 01:01:40;;;;;;;120.57;48.37;;;;;;;-2.74;100.00;99798.28;5013697;28;20654;-84
2022/01/17 01:04:06;;;;;;;123.83;46.87;;;;;;;-1.82;100.00;99924.19;5013424;28;20690;-84
2022/01/17 01:06:31;;;;;;;130.70;51.83;;;;;;;-2.61;100.00;99781.47;5013974;28;20239;-83
2022/01/17 01:08:57;;;;;;;143.90;54.07;;;;;;;-2.88;100.00;99774.59;5013291;28;20163;-82
2022/01/17 01:11:23;;;;;;;147.33;56.60;;;;;;;-1.40;100.00;99987.97;5013385;28;20163;-83
2022/01/17 01:13:48;;;;;;;127.53;53.30;;;;;;;-1.74;100.00;99924.94;5014029;28;20170;-87
2022/01/17 01:19:06;;;;;;;188.60;71.03;;;;;;;-2.59;100.00;99772.59;5012613;28;20261;-84
2022/01/17 01:29:45;;;;;;;170.68;62.88;;;;;;;-1.48;100.00;99963.13;5012839;28;20247;-83
2022/01/17 01:32:12;;;;;;;147.38;53.15;;;;;;;-1.46;100.00;99954.25;5012795;28;20254;-83
2022/01/17 01:34:42;;;;;;;134.18;51.78;;;;;;;-2.17;100.00;99838.81;5012606;28;20167;-83
2022/01/17 01:37:08;;;;;;;125.43;49.13;;;;;;;-1.38;100.00;99951.78;5012967;28;20198;-84
2022/01/17 01:39:34;;;;;;;127.47;49.03;;;;;;;-1.37;100.00;99937.75;5013207;28;20167;-83
2022/01/17 01:41:59;;;;;;;140.23;52.05;;;;;;;-3.18;100.00;99636.25;5012721;28;20173;-82
2022/01/17 01:44:27;;;;;;;124.10;49.47;;;;;;;-4.48;100.00;99407.94;5012189;28;20175;-83
2022/01/17 01:46:54;;;;;;;126.28;47.78;;;;;;;-1.27;100.00;99930.50;5011487;28;20159;-83
2022/01/17 01:49:21;;;;;;;111.70;43.15;;;;;;;-1.35;100.00;99926.38;5012357;28;20183;-84
2022/01/17 01:51:47;;;;;;;110.20;40.20;;;;;;;-1.68;100.00;99921.47;5012453;28;20225;-84
2022/01/17 01:54:13;;;;;;;96.25;36.42;;;;;;;-1.76;100.00;99918.94;4994575;28;20179;-84
2022/01/17 01:56:45;;;;;;;108.80;43.35;;;;;;;-1.66;100.00;99921.59;5012340;28;20741;-83
2022/01/17 01:59:11;;;;;;;117.07;43.78;;;;;;;-3.18;100.00;99641.19;5012398;28;20167;-84
2022/01/17 02:01:37;;;;;;;112.95;43.25;;;;;;;-2.79;100.00;99717.69;5012513;28;20666;-84
2022/01/17 02:04:03;;;;;;;103.03;41.20;;;;;;;-3.94;100.00;99513.03;5012009;28;20167;-83
2022/01/17 02:06:29;;;;;;;101.45;41.45;;;;;;;-1.65;100.00;99908.47;5012136;28;20190;-83
2022/01/17 02:08:55;;;;;;;111.53;42.73;;;;;;;-2.15;100.00;99819.16;4994160;28;20667;-83
2022/01/17 02:11:20;;;;;;;94.00;37.97;;;;;;;-3.17;100.00;99624.75;4994479;28;20175;-83
2022/01/17 02:13:46;;;;;;;93.80;37.67;;;;;;;-2.71;100.00;99704.47;5011771;28;20167;-84
2022/01/17 02:16:15;;;;;;;95.18;38.42;;;;;;;-2.55;100.00;99742.44;5012471;28;20195;-83
2022/01/17 02:18:42;;;;;;;105.97;40.70;;;;;;;-3.84;100.00;99570.09;5012245;28;20549;-83
2022/01/17 02:23:36;;;;;;;94.28;37.17;;;;;;;-2.84;100.00;99734.59;5016058;28;20213;-84
2022/01/17 02:26:01;;;;;;;86.73;34.77;;;;;;;-2.69;100.00;99745.16;5015570;28;20187;-83
2022/01/17 02:28:27;;;;;;;102.13;41.77;;;;;;;-2.49;100.00;99798.44;5015523;28;20612;-83
2022/01/17 02:30:53;;;;;;;86.28;33.28;;;;;;;-2.45;100.00;99775.72;5015165;28;20623;-83
2022/01/17 02:33:19;;;;;;;80.80;34.60;;;;;;;-1.77;100.00;99887.41;5015088;28;20245;-83
2022/01/17 02:35:49;;;;;;;82.03;32.10;;;;;;;-3.97;100.00;99549.78;4997545;28;20194;-83
2022/01/17 02:38:14;;;;;;;83.38;29.45;;;;;;;-4.50;100.00;99434.03;5015690;28;20257;-83
2022/01/17 02:40:39;;;;;;;80.47;32.30;;;;;;;-5.44;100.00;99283.69;5015968;28;20194;-83
2022/01/17 02:43:07;;;;;;;85.93;33.53;;;;;;;-4.49;100.00;99458.03;5015251;28;20696;-83
2022/01/17 02:46:24;;;;;;;87.07;33.47;;;;;;;-5.32;100.00;99371.97;5015531;28;20224;-83
2022/01/17 02:48:21;;;;;;;92.05;33.83;;;;;;;-2.26;100.00;99885.03;5014538;28;20169;-83
2022/01/17 02:50:47;;;;;;;83.55;32.67;;;;;;;-2.11;100.00;99888.13;5015079;28;20167;-83
2022/01/17 02:53:13;;;;;;;83.50;33.38;;;;;;;-5.68;100.00;99305.81;5015837;28;20173;-83
2022/01/17 02:55:50;;;;;;;87.13;34.43;;;;;;;-3.85;100.00;99546.09;5014914;28;20198;-84
2022/01/17 02:58:19;;;;;;;91.18;34.75;;;;;;;-2.02;100.00;99871.69;5014648;28;20619;-84
2022/01/17 03:00:45;;;;;;;82.80;34.47;;;;;;;-4.32;100.00;99510.03;5015251;28;20587;-83
2022/01/17 03:03:14;;;;;;;91.73;35.73;;;;;;;-1.94;100.00;99886.63;5015650;28;20167;-83
2022/01/17 03:05:40;;;;;;;91.07;35.25;;;;;;;-4.99;100.00;99400.13;5014879;28;20434;-84
2022/01/17 03:08:06;;;;;;;97.87;36.93;;;;;;;-2.13;100.00;99879.69;5015242;28;20266;-84
2022/01/17 03:10:40;;;;;;;94.30;36.87;;;;;;;-2.14;100.00;99912.66;5015668;28;20174;-83
2022/01/17 03:13:11;;;;;;;113.22;45.67;;;;;;;-2.12;100.00;99869.94;5015151;28;20668;-83
2022/01/17 03:15:37;;;;;;;102.47;40.38;;;;;;;-2.34;100.00;99846.19;5014495;28;20694;-83
2022/01/17 03:18:03;;;;;;;100.60;38.83;;;;;;;-2.06;100.00;99867.19;5013895;28;20221;-83
2022/01/17 03:20:29;;;;;;;113.63;42.30;;;;;;;-2.40;100.00;99806.81;5013992;28;20162;-82
2022/01/17 03:22:55;;;;;;;103.67;39.77;;;;;;;-3.63;100.00;99590.47;5014177;28;20173;-83
2022/01/17 03:25:20;;;;;;;100.37;39.30;;;;;;;-3.51;100.00;99629.50;5014373;28;20159;-83
2022/01/17 03:27:46;;;;;;;105.53;40.27;;;;;;;-4.06;100.00;99558.75;5014129;28;20159;-82
2022/01/17 03:30:11;;;;;;;111.70;42.40;;;;;;;-3.83;100.00;99589.16;5014635;28;20241;-83
2022/01/17 03:32:37;;;;;;;103.07;38.10;;;;;;;-4.34;100.00;99518.88;5013783;28;20696;-83
2022/01/17 03:35:03;;;;;;;102.63;40.80;;;;;;;-2.31;100.00;99856.44;5014116;28;20870;-83
2022/01/17 03:37:29;;;;;;;98.10;40.33;;;;;;;-2.34;100.00;99850.28;5014461;28;20289;-83
2022/01/17 03:39:54;;;;;;;96.90;40.43;;;;;;;-3.65;100.00;99605.84;5014009;28;20199;-83
2022/01/17 03:42:20;;;;;;;100.77;39.50;;;;;;;-5.78;100.00;99231.66;5013753;28;20369;-82
2022/01/17 03:44:46;;;;;;;99.63;40.70;;;;;;;-2.97;100.00;99713.41;5013399;28;20649;-83
2022/01/17 03:47:12;;;;;;;95.82;38.67;;;;;;;-3.36;100.00;99666.59;5013991;28;20581;-82
2022/01/17 03:49:38;;;;;;;121.65;44.40;;;;;;;-5.58;100.00;99280.53;5013889;28;20174;-83
2022/01/17 03:52:04;;;;;;;108.60;41.03;;;;;;;-4.93;100.00;99373.63;5014861;28;20170;-82
2022/01/17 03:54:31;;;;;;;104.63;42.00;;;;;;;-4.43;100.00;99499.78;5014857;28;20185;-82
2022/01/17 03:56:57;;;;;;;115.07;43.63;;;;;;;-4.97;100.00;99392.16;5013760;28;20186;-84
2022/01/17 03:59:22;;;;;;;126.18;48.53;;;;;;;-5.39;100.00;99329.44;5013907;28;20159;-83
2022/01/17 04:01:49;;;;;;;151.30;58.47;;;;;;;-5.87;100.00;99208.56;4996261;28;20225;-83
2022/01/17 04:04:14;;;;;;;195.93;70.97;;;;;;;-4.35;100.00;99481.66;5013836;28;20548;-83
2022/01/17 04:06:40;;;;;;;174.33;67.13;;;;;;;-4.54;100.00;99417.19;5013983;28;20167;-83
2022/01/17 04:09:28;;;;;;;144.20;55.23;;;;;;;-2.27;100.00;99801.44;4999300;28;20191;-84
2022/01/17 04:11:53;;;;;;;133.23;51.65;;;;;;;-2.65;100.00;99749.69;4953289;29;20185;-83
2022/01/17 04:14:19;;;;;;;128.60;51.03;;;;;;;-3.93;100.00;99519.72;4953140;29;20256;-82
2022/01/17 04:16:44;;;;;;;128.43;48.77;;;;;;;-4.81;100.00;99404.50;4953830;29;20205;-83
2022/01/17 04:19:11;;;;;;;134.67;49.80;;;;;;;-2.52;100.00;99782.38;4954453;29;20182;-83
2022/01/17 04:21:37;;;;;;;186.13;68.40;;;;;;;-3.57;100.00;99575.34;4937510;29;20551;-83
2022/01/17 04:24:02;;;;;;;175.13;64.13;;;;;;;-4.20;100.00;99465.91;4953411;29;20292;-83
2022/01/17 04:26:28;;;;;;;123.83;47.80;;;;;;;-2.19;100.00;99822.91;4938062;29;20252;-83
2022/01/17 04:28:55;;;;;;;127.15;48.63;;;;;;;-2.18;100.00;99837.06;4954394;29;20200;-84
2022/01/17 04:31:20;;;;;;;137.47;51.40;;;;;;;-3.88;100.00;99550.72;4953836;29;20199;-83
2022/01/17 04:33:46;;;;;;;143.57;50.63;;;;;;;-2.73;100.00;99750.50;4953866;29;20264;-83
2022/01/17 04:36:12;;;;;;;123.55;48.40;;;;;;;-5.28;100.00;99312.41;4954318;29;20582;-84
2022/01/17 04:38:37;;;;;;;113.97;42.07;;;;;;;-4.81;100.00;99414.38;4952811;29;20190;-84
2022/01/17 04:41:14;;;;;;;107.60;42.60;;;;;;;-3.65;100.00;99621.56;4954827;29;20181;-83
2022/01/17 04:46:07;;;;;;;81.50;33.77;;;;;;;-2.21;100.00;99826.84;5013689;28;20155;-83
2022/01/17 04:48:33;;;;;;;79.75;32.85;;;;;;;-4.25;100.00;99517.34;5013920;28;20166;-83
2022/01/17 04:50:59;;;;;;;66.10;28.23;;;;;;;-2.33;100.00;99828.09;5013421;28;20182;-83
2022/01/17 04:53:25;;;;;;;71.85;27.60;;;;;;;-2.48;100.00;99821.63;4995708;28;20174;-82
2022/01/17 04:55:51;;;;;;;67.15;28.05;;;;;;;-4.04;100.00;99558.22;5013190;28;20206;-82
2022/01/17 04:58:16;;;;;;;74.27;28.17;;;;;;;-2.41;100.00;99846.28;5012860;28;20174;-83
2022/01/17 05:00:48;;;;;;;90.13;32.53;;;;;;;-2.45;100.00;99846.72;5012602;28;20174;-83
2022/01/17 05:03:18;;;;;;;63.08;24.85;;;;;;;-2.80;100.00;99797.69;5013118;28;20166;-83
2022/01/17 05:05:43;;;;;;;58.80;24.15;;;;;;;-2.60;100.00;99837.72;5012884;28;20167;-83
2022/01/17 05:08:09;;;;;;;61.33;24.17;;;;;;;-2.53;100.00;99835.16;4995198;28;20284;-83
2022/01/17 05:10:35;;;;;;;53.90;22.47;;;;;;;-4.57;100.00;99473.66;5012277;28;20158;-82
2022/01/17 05:13:01;;;;;;;64.00;24.43;;;;;;;-6.26;100.00;99197.06;5011971;28;20245;-84
2022/01/17 05:20:24;;;;;;;141.15;51.58;;;;;;;-3.06;100.00;99738.97;5012854;28;20167;-83
2022/01/17 05:22:50;;;;;;;134.18;46.08;;;;;;;-2.57;100.00;99836.44;5012566;28;20229;-82
2022/01/17 05:25:15;;;;;;;174.38;65.45;;;;;;;-2.52;100.00;99826.97;5012887;28;20174;-83
2022/01/17 05:27:41;;;;;;;256.57;94.13;;;;;;;-2.51;100.00;99827.16;5012591;28;20162;-82
2022/01/17 05:30:10;;;;;;;164.40;62.47;;;;;;;-2.58;100.00;99812.38;5012416;28;20166;-83
2022/01/17 05:32:36;;;;;;;76.75;31.60;;;;;;;-4.36;100.00;99468.44;5012714;28;20167;-83
2022/01/17 05:35:02;;;;;;;68.88;30.40;;;;;;;-2.36;100.00;99825.31;5014177;28;20171;-82
2022/01/17 05:37:28;;;;;;;72.70;30.45;;;;;;;-5.44;100.00;99315.75;5012474;28;20195;-82
2022/01/17 05:39:53;;;;;;;71.53;30.83;;;;;;;-2.43;100.00;99813.03;5012336;28;20174;-82
2022/01/17 05:42:20;;;;;;;160.80;61.07;;;;;;;-2.91;100.00;99739.63;5012565;28;20174;-83
2022/01/17 05:44:47;;;;;;;138.00;49.92;;;;;;;-5.94;100.00;99228.38;5011772;28;20758;-83
2022/01/17 05:47:13;;;;;;;111.78;42.85;;;;;;;-3.18;100.00;99698.13;5012002;28;20246;-83
2022/01/17 05:49:39;;;;;;;103.63;38.55;;;;;;;-4.23;100.00;99524.94;5013903;28;20170;-83
2022/01/17 05:52:05;;;;;;;184.60;54.17;;;;;;;-6.73;100.00;99094.50;5012060;28;20174;-82
2022/01/17 05:54:31;;;;;;;369.85;107.78;;;;;;;-6.15;100.00;99181.78;5013091;28;20171;-83
2022/01/17 05:56:56;;;;;;;295.80;108.73;;;;;;;-6.01;100.00;99230.88;5015495;28;20198;-83
2022/01/17 05:59:21;;;;;;;270.30;99.57;;;;;;;-3.96;100.00;99561.44;5015547;28;20175;-83
2022/01/17 06:01:47;;;;;;;237.57;85.83;;;;;;;-2.87;100.00;99730.91;5016015;28;20221;-84
2022/01/17 06:04:12;;;;;;;221.70;81.33;;;;;;;-4.50;100.00;99463.69;5016034;28;20169;-83
2022/01/17 06:06:38;;;;;;;308.27;110.77;;;;;;;-4.66;100.00;99408.50;5016112;28;20252;-84
2022/01/17 06:09:03;;;;;;;295.37;108.30;;;;;;;-5.40;100.00;99272.56;5017058;28;20197;-83
2022/01/17 06:11:30;;;;;;;290.17;100.93;;;;;;;-5.41;100.00;99251.94;5016373;28;20159;-83
2022/01/17 06:13:56;;;;;;;297.48;105.80;;;;;;;-2.88;100.00;99699.47;5015802;28;20209;-83
2022/01/17 06:16:21;;;;;;;339.20;112.60;;;;;;;-2.68;100.00;99729.56;5015962;28;20191;-84
2022/01/17 06:18:46;;;;;;;127.57;46.60;;;;;;;-2.31;100.00;99794.44;5015638;28;20239;-83
2022/01/17 06:21:12;;;;;;;95.97;38.77;;;;;;;-2.80;100.00;99706.91;5016426;28;20220;-84
2022/01/17 06:23:37;;;;;;;155.07;62.73;;;;;;;-3.18;100.00;99667.53;5000090;28;20653;-83
2022/01/17 06:26:03;;;;;;;167.23;69.23;;;;;;;-4.41;100.00;99464.63;5015352;28;20163;-82
2022/01/17 06:28:28;;;;;;;127.80;53.67;;;;;;;-4.67;100.00;99401.84;5015965;28;20178;-83
2022/01/17 06:30:54;;;;;;;130.87;56.23;;;;;;;-4.07;100.00;99490.28;5015758;28;20166;-83
2022/01/17 06:33:19;;;;;;;106.83;45.23;;;;;;;-3.59;100.00;99508.41;5015442;28;20162;-83
2022/01/17 06:35:45;;;;;;;128.53;53.70;;;;;;;-4.49;100.00;99327.13;4998629;28;20654;-83
2022/01/17 06:38:10;;;;;;;189.10;69.97;;;;;;;-2.65;100.00;99608.47;5014945;28;20179;-83
2022/01/17 06:40:36;;;;;;;141.63;55.53;;;;;;;-4.87;100.00;99196.53;5015286;28;20629;-83
2022/01/17 06:43:01;;;;;;;147.00;54.47;;;;;;;-4.26;100.00;99287.41;5015587;28;20163;-83
2022/01/17 06:45:26;;;;;;;204.00;79.50;;;;;;;-4.13;100.00;99284.53;5021720;28;20211;-83
2022/01/17 06:47:52;;;;;;;225.77;78.50;;;;;;;-3.28;100.00;99368.78;5015268;28;20247;-83
2022/01/17 06:50:18;;;;;;;200.50;75.90;;;;;;;-2.63;100.00;99450.94;5015117;28;20558;-83
2022/01/17 06:52:45;;;;;;;193.47;68.73;;;;;;;-0.59;100.00;99790.44;5016579;28;20186;-83
2022/01/17 06:55:11;;;;;;;294.75;105.15;;;;;;;-1.05;98.38;99661.09;5024434;28;20295;-84
2022/01/17 06:57:36;;;;;;;308.23;108.23;;;;;;;-0.61;97.22;99718.22;5032828;28;20689;-83
2022/01/17 07:00:05;;;;;;;339.13;126.10;;;;;;;-0.06;95.46;99773.84;5033503;28;20182;-82
2022/01/17 07:02:31;;;;;;;409.17;165.85;;;;;;;0.12;94.60;99778.69;5033772;28;20645;-83
2022/01/17 07:04:56;;;;;;;304.77;118.60;;;;;;;0.33;92.25;99771.53;5032221;28;20197;-82
2022/01/17 07:07:22;;;;;;;139.00;42.27;;;;;;;-0.09;89.69;99743.72;5033320;28;20227;-82
2022/01/17 07:09:47;;;;;;;181.70;64.47;;;;;;;-1.91;91.11;99430.53;5032926;28;20193;-82
2022/01/17 07:12:12;;;;;;;146.43;57.53;;;;;;;-1.15;90.71;99503.63;5019768;28;20186;-83
2022/01/17 07:14:41;;;;;;;95.20;41.43;;;;;;;-0.29;88.47;99608.34;4995798;28;20226;-83
2022/01/17 07:17:09;;;;;;;81.30;36.28;;;;;;;0.93;88.65;99758.63;5013717;28;20210;-83
2022/01/17 07:19:35;;;;;;;90.43;37.40;;;;;;;2.69;78.72;99728.38;5014045;28;20566;-82
2022/01/17 07:22:00;;;;;;;108.23;43.80;;;;;;;0.62;69.92;99265.16;5013527;28;20258;-82
2022/01/17 07:24:25;;;;;;;131.57;52.43;;;;;;;1.81;74.26;99620.50;5012803;28;20186;-82
2022/01/17 07:26:51;;;;;;;191.30;63.03;;;;;;;-0.85;75.36;99238.03;5013031;28;20706;-82
2022/01/17 07:29:16;;;;;;;95.93;39.53;;;;;;;0.95;77.09;99599.25;5013530;28;20269;-83
2022/01/17 07:31:42;;;;;;;81.83;33.23;;;;;;;0.91;78.59;99582.25;5012882;28;20191;-82
2022/01/17 07:34:07;;;;;;;88.33;36.13;;;;;;;0.95;80.12;99614.19;5018444;28;20238;-83
2022/01/17 07:36:33;;;;;;;86.40;35.47;;;;;;;1.96;80.90;99739.94;5014842;28;20750;-82
2022/01/17 07:38:59;;;;;;;71.30;32.20;;;;;;;0.48;77.41;99498.97;5012126;28;20193;-82
2022/01/17 07:41:25;;;;;;;82.77;36.83;;;;;;;1.67;78.31;99687.63;5013389;28;20673;-83
2022/01/17 07:43:53;;;;;;;89.97;37.50;;;;;;;2.06;77.36;99684.16;5013273;28;20206;-82
2022/01/17 07:46:24;;;;;;;70.50;30.57;;;;;;;1.03;78.87;99590.78;5012644;28;20441;-82
2022/01/17 07:49:10;;;;;;;85.70;35.90;;;;;;;1.78;80.04;99711.84;5008801;28;20433;-83
2022/01/17 07:51:39;;;;;;;73.40;30.13;;;;;;;1.69;82.81;99741.03;5032618;28;20425;-83
2022/01/17 07:54:05;;;;;;;56.27;26.73;;;;;;;1.49;84.34;99718.53;5023096;28;20471;-83
2022/01/17 07:56:33;;;;;;;67.00;28.17;;;;;;;1.51;84.01;99707.03;5032411;28;20476;-83
2022/01/17 07:58:58;;;;;;;69.30;32.10;;;;;;;-1.87;82.36;99087.75;5032378;28;20447;-83
2022/01/17 08:01:23;;;;;;;63.77;27.87;;;;;;;2.33;78.80;99683.88;5032406;28;20429;-83
2022/01/17 08:03:49;;;;;;;74.77;35.90;;;;;;;1.91;76.99;99573.06;5032298;28;20214;-83
2022/01/17 08:06:14;;;;;;;121.53;54.67;;;;;;;2.70;74.86;99603.53;5030938;28;20190;-84
2022/01/17 08:08:40;;;;;;;225.63;86.47;;;;;;;2.40;75.21;99556.19;5031816;28;20186;-83
2022/01/17 08:11:05;;;;;;;187.20;70.33;;;;;;;2.70;75.79;99568.53;5032155;28;20272;-82
2022/01/17 08:13:30;;;;;;;129.97;52.27;;;;;;;3.23;75.16;99605.13;5031841;28;20186;-83
2022/01/17 08:15:56;;;;;;;189.07;75.10;;;;;;;2.67;74.25;99505.81;5036301;28;20233;-82
2022/01/17 08:18:21;;;;;;;180.57;71.60;;;;;;;3.50;74.14;99637.19;5034931;28;20178;-83
2022/01/17 08:20:47;;;;;;;254.73;94.37;;;;;;;4.50;71.40;99804.09;5033215;28;20577;-83
2022/01/17 08:23:13;;;;;;;93.53;40.90;;;;;;;3.30;71.47;99683.97;5042149;28;20201;-82
2022/01/17 08:25:38;;;;;;;127.33;58.37;;;;;;;4.52;70.40;99856.09;5021471;28;20280;-84
2022/01/17 08:28:05;;;;;;;84.90;38.63;;;;;;;2.16;67.42;99425.31;5031799;28;20178;-83
2022/01/17 08:30:32;;;;;;;68.47;30.20;;;;;;;3.75;66.53;99637.38;5032149;28;20243;-83
2022/01/17 08:33:00;;;;;;;30.13;13.40;;;;;;;3.85;60.86;99547.16;5032223;28;20436;-82
2022/01/17 08:35:26;;;;;;;23.80;11.60;;;;;;;5.93;57.73;99750.75;5034284;28;20444;-83
2022/01/17 08:37:52;;;;;;;21.50;10.23;;;;;;;5.53;54.38;99578.03;5031883;28;20479;-82
2022/01/17 08:40:18;;;;;;;24.47;11.07;;;;;;;7.29;51.47;99804.09;5032021;28;20432;-83
2022/01/17 08:42:49;;;;;;;17.10;7.50;;;;;;;7.23;49.62;99755.84;5014118;28;20193;-83
2022/01/17 08:45:15;;;;;;;14.83;8.17;;;;;;;5.75;49.29;99473.19;5033182;28;20460;-83
2022/01/17 08:47:46;;;;;;;15.40;7.53;;;;;;;6.62;47.84;99572.56;5010115;28;20464;-82
2022/01/17 08:50:12;;;;;;;63.30;20.90;;;;;;;6.71;48.29;99568.06;5012881;28;20517;-83
2022/01/17 08:52:38;;;;;;;109.10;30.77;;;;;;;7.90;45.63;99718.88;5002925;28;20441;-83
2022/01/17 08:55:04;;;;;;;41.17;15.83;;;;;;;7.98;46.66;99676.47;5012600;28;20210;-83
2022/01/17 08:57:29;;;;;;;27.23;14.00;;;;;;;7.70;45.63;99565.63;5012511;28;20202;-83
2022/01/17 08:59:54;;;;;;;25.10;12.70;;;;;;;8.15;46.41;99648.03;5011520;28;20265;-84
2022/01/17 09:02:20;;;;;;;20.53;10.23;;;;;;;7.76;47.07;99537.38;5011498;28;20562;-84
2022/01/17 09:04:46;;;;;;;29.07;13.53;;;;;;;7.33;46.04;99477.03;5012872;28;20658;-85
2022/01/17 09:07:14;;;;;;;25.63;13.43;;;;;;;8.68;44.40;99724.28;5013350;28;20325;-84
2022/01/17 09:09:42;;;;;;;24.00;10.67;;;;;;;7.80;43.82;99564.50;4998356;28;20190;-84
2022/01/17 09:12:09;;;;;;;25.20;9.97;;;;;;;8.72;43.30;99698.41;5024608;28;20193;-85
2022/01/17 09:14:35;;;;;;;16.93;8.73;;;;;;;7.62;43.50;99492.13;5020540;28;20234;-85
2022/01/17 09:17:02;;;;;;;13.13;6.63;;;;;;;8.84;42.99;99684.78;5014381;28;20214;-85
2022/01/17 09:19:28;;;;;;;18.20;7.07;;;;;;;6.82;42.51;99298.75;5011963;28;20187;-84
2022/01/17 09:21:53;;;;;;;13.23;6.77;;;;;;;8.09;43.04;99471.22;5013282;28;20636;-86
2022/01/17 09:24:19;;;;;;;17.27;7.20;;;;;;;7.21;42.90;99352.97;5015442;28;20187;-87
2022/01/17 09:26:46;;;;;;;20.33;10.10;;;;;;;8.87;43.99;99606.69;4994934;28;20190;-85
2022/01/17 09:29:12;;;;;;;19.87;10.13;;;;;;;8.99;43.46;99581.25;5015380;28;20190;-84
2022/01/17 09:31:37;;;;;;;17.00;6.80;;;;;;;8.29;42.92;99421.06;5018157;28;20639;-84
2022/01/17 09:34:03;;;;;;;16.60;6.27;;;;;;;9.73;43.23;99635.63;5018201;28;20261;-84
2022/01/17 09:36:31;;;;;;;20.30;8.53;;;;;;;8.77;42.58;99485.84;5017371;28;20293;-84
2022/01/17 09:38:57;;;;;;;13.90;6.40;;;;;;;8.62;42.61;99530.50;5018744;28;20179;-87
2022/01/17 09:41:23;;;;;;;11.77;5.43;;;;;;;8.39;42.05;99424.09;5018176;28;20185;-85
2022/01/17 09:43:50;;;;;;;11.70;6.73;;;;;;;7.03;42.22;99196.75;5002884;28;20200;-83
2022/01/17 09:46:17;;;;;;;16.67;8.87;;;;;;;9.09;42.11;99524.53;5028864;28;20190;-81
2022/01/17 09:48:48;;;;;;;14.17;6.40;;;;;;;9.50;41.41;99573.81;5016368;28;20635;-84
2022/01/17 09:51:41;;;;;;;25.97;9.93;;;;;;;9.04;41.76;99376.97;5018507;28;20182;-84
2022/01/17 09:54:03;;;;;;;20.17;8.37;;;;;;;10.60;42.34;99650.94;5008192;28;20230;-86
2022/01/17 09:56:30;;;;;;;15.33;8.57;;;;;;;9.53;42.93;99509.06;5019896;28;20589;-85
2022/01/17 09:58:57;;;;;;;12.87;5.37;;;;;;;8.70;42.37;99423.25;5020059;28;20658;-85
2022/01/17 10:01:24;;;;;;;11.37;5.73;;;;;;;8.32;42.41;99327.91;5037910;28;20184;-85
2022/01/17 10:03:51;;;;;;;9.33;4.90;;;;;;;10.25;42.63;99640.75;5038242;28;20182;-86
2022/01/17 10:06:16;;;;;;;9.23;4.50;;;;;;;9.54;42.03;99548.69;5037731;28;20182;-85
2022/01/17 10:08:42;;;;;;;9.23;4.63;;;;;;;8.26;42.12;99341.84;5037941;28;20182;-84
2022/01/17 10:11:15;;;;;;;13.23;8.50;;;;;;;9.97;42.12;99580.38;5037581;28;20568;-84
2022/01/17 10:13:45;;;;;;;13.87;6.47;;;;;;;10.02;43.34;99620.25;5038581;28;20184;-85
2022/01/17 10:16:12;;;;;;;10.40;5.00;;;;;;;10.35;42.79;99615.13;5037509;28;20229;-83
2022/01/17 10:19:00;;;;;;;8.13;4.53;;;;;;;9.16;41.44;99436.50;5002052;28;20650;-83
2022/01/17 10:21:29;;;;;;;6.20;3.70;;;;;;;10.41;41.01;99595.19;5018001;28;20641;-83
2022/01/17 10:37:23;;;;;;;9.37;4.67;;;;;;;9.85;41.37;99416.28;5017862;28;20206;-84
2022/01/17 10:39:55;;;;;;;8.30;4.43;;;;;;;9.96;41.15;99453.06;5017011;28;20655;-83
2022/01/17 10:42:29;;;;;;;8.07;4.20;;;;;;;10.62;40.87;99561.59;5015738;28;20189;-84
2022/01/17 10:45:01;;;;;;;7.70;4.50;;;;;;;10.21;40.25;99489.63;5014597;28;20208;-82
2022/01/17 10:47:28;;;;;;;9.57;4.60;;;;;;;8.87;40.14;99224.69;5022092;28;20185;-84
2022/01/17 10:49:59;;;;;;;9.53;4.63;;;;;;;10.36;39.26;99429.59;5034471;28;20240;-83
2022/01/17 10:52:43;;;;;;;7.77;4.23;;;;;;;10.43;38.53;99482.22;5034644;28;20190;-85
2022/01/17 10:55:17;;;;;;;6.10;3.80;;;;;;;8.89;39.54;99258.44;5025439;28;20240;-83
2022/01/17 10:57:49;;;;;;;24.43;12.57;;;;;;;11.45;40.86;99587.28;5033827;28;20292;-83
2022/01/17 11:00:20;;;;;;;35.23;15.87;;;;;;;11.29;41.51;99572.19;5034530;28;20192;-85
2022/01/17 11:02:49;;;;;;;30.20;13.77;;;;;;;11.31;41.35;99587.47;5035181;28;20213;-83
2022/01/17 11:05:17;;;;;;;32.23;15.77;;;;;;;11.46;42.42;99605.88;5036022;28;20214;-84
2022/01/17 11:07:45;;;;;;;25.93;15.37;;;;;;;11.43;42.90;99598.13;5034863;28;20269;-83
2022/01/17 11:10:24;;;;;;;20.90;10.20;;;;;;;10.49;42.27;99396.47;5034982;28;20178;-84
2022/01/17 11:12:53;;;;;;;32.10;15.40;;;;;;;11.76;41.14;99590.31;5036119;28;20194;-85
2022/01/17 11:15:20;;;;;;;19.47;11.43;;;;;;;11.72;40.86;99567.31;5034223;28;20236;-83
2022/01/17 11:17:52;;;;;;;17.57;9.03;;;;;;;11.12;40.80;99499.66;5033097;28;20754;-83
2022/01/17 11:20:20;;;;;;;25.47;15.10;;;;;;;10.73;41.03;99387.38;5015790;28;20193;-84
2022/01/17 11:22:50;;;;;;;19.37;11.00;;;;;;;11.52;41.85;99553.75;5015841;28;20671;-83
2022/01/17 11:25:37;;;;;;;21.73;10.13;;;;;;;11.86;41.57;99565.34;5033326;28;20213;-83
2022/01/17 11:28:06;;;;;;;11.80;5.63;;;;;;;10.91;38.61;99486.03;5015624;28;20198;-83
2022/01/17 11:30:36;;;;;;;6.07;4.00;;;;;;;10.12;38.27;99388.84;5033085;28;20669;-83
2022/01/17 11:33:04;;;;;;;8.87;4.90;;;;;;;11.03;38.64;99563.47;5015801;28;20188;-84
2022/01/17 11:35:31;;;;;;;6.80;4.20;;;;;;;11.06;39.12;99571.19;5015213;28;20194;-83
2022/01/17 11:37:58;;;;;;;10.40;4.40;;;;;;;10.95;38.99;99525.91;5032495;28;20213;-82
2022/01/17 11:40:34;;;;;;;9.23;4.97;;;;;;;11.07;39.34;99567.00;5033245;28;20193;-84
2022/01/17 11:43:14;;;;;;;13.13;6.07;;;;;;;10.01;39.83;99411.13;5033111;28;20649;-84
2022/01/17 11:45:41;;;;;;;14.93;6.40;;;;;;;10.31;40.12;99451.28;5032251;28;20189;-84